Time;durP1;ratioP1;P1;durP2;ratioP2;P2;SDS_P1;SDS_P2;PMS_P1;PMS_P2;Temp;Humidity;BMP_temperature;BMP_pressure;BME280_temperature;BME280_humidity;BME280_pressure;Samples;Min_cycle;Max_cycle;Signal;HPM_P1;HPM_P2
2024/02/29 00:00:16;;;;;;;50.67;24.08;;;;;;;;;;4938614;29;20027;-92
2024/02/29 00:02:42;;;;;;;50.28;25.38;;;;;;;;;;4938577;29;20033;-92
2024/02/29 00:05:12;;;;;;;48.17;24.42;;;;;;;;;;4957360;28;20449;-92
2024/02/29 00:07:42;;;;;;;45.40;23.25;;;;;;;;;;4957665;28;20050;-92
2024/02/29 00:10:15;;;;;;;45.22;23.92;;;;;;;;;;4957713;28;20118;-93
2024/02/29 00:18:29;;;;;;;44.08;23.10;;;;;;;;;;4978945;28;20069;-92
2024/02/29 00:20:55;;;;;;;46.45;25.05;;;;;;;;;;4961425;28;20030;-92
2024/02/29 00:23:27;;;;;;;45.75;22.58;;;;;;;;;;4961372;28;20027;-91
2024/02/29 00:25:53;;;;;;;48.50;24.02;;;;;;;;;;4961005;28;20034;-93
2024/02/29 00:28:20;;;;;;;41.80;21.95;;;;;;;;;;4961267;28;20483;-92
2024/02/29 00:30:49;;;;;;;42.47;22.33;;;;;;;;;;4961168;28;20066;-92
2024/02/29 00:33:21;;;;;;;38.60;21.48;;;;;;;;;;4961654;28;20476;-91
2024/02/29 00:35:48;;;;;;;44.25;23.73;;;;;;;;;;4962598;28;20027;-92
2024/02/29 00:38:14;;;;;;;42.65;22.33;;;;;;;;;;4978027;28;20030;-92
2024/02/29 00:40:40;;;;;;;37.28;21.27;;;;;;;;;;4960985;28;20697;-92
2024/02/29 00:43:09;;;;;;;36.33;21.20;;;;;;;;;;4961171;28;20093;-92
2024/02/29 00:45:44;;;;;;;39.70;20.85;;;;;;;;;;4960722;28;20049;-91
2024/02/29 00:48:10;;;;;;;41.95;23.05;;;;;;;;;;4960874;28;20480;-93
2024/02/29 00:50:45;;;;;;;44.03;21.73;;;;;;;;;;4960026;28;20035;-92
2024/02/29 00:53:17;;;;;;;48.95;25.70;;;;;;;;;;4960279;28;20050;-92
2024/02/29 00:55:44;;;;;;;43.30;23.92;;;;;;;;;;4960704;28;20023;-92
2024/02/29 00:58:10;;;;;;;46.35;23.60;;;;;;;;;;4960553;28;20030;-92
2024/02/29 01:00:39;;;;;;;47.55;23.92;;;;;;;;;;4960724;28;20121;-91
2024/02/29 01:03:08;;;;;;;43.22;21.17;;;;;;;;;;4960619;28;20480;-93
2024/02/29 01:05:35;;;;;;;41.03;20.92;;;;;;;;;;4960242;28;20030;-92
2024/02/29 01:08:01;;;;;;;51.40;23.40;;;;;;;;;;4960554;28;20078;-92
2024/02/29 01:10:27;;;;;;;51.42;22.52;;;;;;;;;;4960385;28;20030;-92
2024/02/29 01:12:53;;;;;;;44.53;20.95;;;;;;;;;;4960286;28;20046;-92
2024/02/29 01:15:20;;;;;;;42.25;20.38;;;;;;;;;;4960362;28;20081;-93
2024/02/29 01:17:50;;;;;;;44.97;21.88;;;;;;;;;;4960279;28;20081;-92
2024/02/29 01:20:16;;;;;;;56.05;27.75;;;;;;;;;;4960144;28;20118;-90
2024/02/29 01:22:43;;;;;;;44.30;21.70;;;;;;;;;;4959930;28;20023;-93
2024/02/29 01:25:15;;;;;;;53.92;25.40;;;;;;;;;;4959998;28;20042;-92
2024/02/29 01:27:44;;;;;;;49.47;27.50;;;;;;;;;;4960585;28;20026;-92
2024/02/29 01:30:10;;;;;;;51.20;24.45;;;;;;;;;;4959746;28;20037;-92
2024/02/29 01:32:48;;;;;;;53.22;25.63;;;;;;;;;;4960003;28;20054;-93
2024/02/29 01:35:15;;;;;;;52.17;25.33;;;;;;;;;;4959897;28;20026;-93
2024/02/29 01:37:44;;;;;;;51.60;27.05;;;;;;;;;;4960134;28;20413;-93
2024/02/29 01:40:11;;;;;;;51.38;25.60;;;;;;;;;;4959691;28;20035;-92
2024/02/29 01:42:43;;;;;;;51.80;23.52;;;;;;;;;;4970351;28;20050;-91
2024/02/29 01:45:13;;;;;;;53.92;25.10;;;;;;;;;;4972632;29;20047;-92
2024/02/29 01:47:40;;;;;;;53.47;26.90;;;;;;;;;;4959807;28;20026;-93
2024/02/29 01:50:08;;;;;;;46.22;22.35;;;;;;;;;;4959629;28;20035;-92
2024/02/29 01:52:37;;;;;;;49.05;24.27;;;;;;;;;;4959261;28;20490;-93
2024/02/29 01:55:06;;;;;;;49.05;24.63;;;;;;;;;;4959445;28;20025;-94
2024/02/29 01:57:53;;;;;;;52.88;24.33;;;;;;;;;;4959250;28;20031;-93
2024/02/29 02:00:20;;;;;;;53.78;29.05;;;;;;;;;;4921130;29;20039;-92
2024/02/29 02:02:46;;;;;;;49.33;27.27;;;;;;;;;;4954682;28;20113;-93
2024/02/29 02:05:15;;;;;;;51.47;32.08;;;;;;;;;;4959626;28;20035;-94
2024/02/29 02:07:45;;;;;;;36.72;19.88;;;;;;;;;;4959231;28;20404;-92
2024/02/29 02:10:11;;;;;;;38.40;20.10;;;;;;;;;;4959315;28;20357;-93
2024/02/29 02:12:38;;;;;;;44.17;21.17;;;;;;;;;;4959298;28;20037;-93
2024/02/29 02:15:05;;;;;;;43.13;21.15;;;;;;;;;;4959286;28;20077;-93
2024/02/29 02:17:32;;;;;;;46.40;23.27;;;;;;;;;;4959006;28;20065;-93
2024/02/29 02:19:59;;;;;;;46.78;22.10;;;;;;;;;;4959312;28;20030;-93
2024/02/29 02:22:28;;;;;;;44.50;22.08;;;;;;;;;;4959350;28;20027;-93
2024/02/29 02:24:54;;;;;;;50.63;23.77;;;;;;;;;;4958956;28;20049;-92
2024/02/29 02:27:20;;;;;;;47.53;23.02;;;;;;;;;;4959497;28;20488;-92
2024/02/29 02:29:46;;;;;;;46.22;23.50;;;;;;;;;;4958875;28;20030;-93
2024/02/29 02:32:12;;;;;;;45.88;23.13;;;;;;;;;;4958723;28;20035;-92
2024/02/29 02:34:42;;;;;;;48.92;23.50;;;;;;;;;;4958736;28;20027;-93
2024/02/29 02:37:08;;;;;;;52.10;23.67;;;;;;;;;;4958020;28;20041;-91
2024/02/29 02:39:34;;;;;;;46.80;23.05;;;;;;;;;;4958957;28;20023;-92
2024/02/29 02:42:00;;;;;;;45.75;23.00;;;;;;;;;;4958645;28;20062;-93
2024/02/29 02:44:26;;;;;;;47.15;23.73;;;;;;;;;;4958776;28;20122;-93
2024/02/29 02:46:52;;;;;;;45.03;23.38;;;;;;;;;;4958447;28;20055;-93
2024/02/29 02:49:18;;;;;;;47.38;24.20;;;;;;;;;;4951652;29;20027;-93
2024/02/29 02:51:44;;;;;;;45.85;23.10;;;;;;;;;;4939201;28;20032;-93
2024/02/29 02:54:10;;;;;;;45.90;24.83;;;;;;;;;;4939347;29;20039;-92
2024/02/29 02:56:36;;;;;;;43.08;22.30;;;;;;;;;;4939460;28;20050;-93
2024/02/29 02:59:03;;;;;;;49.85;24.33;;;;;;;;;;4958307;28;20035;-93
2024/02/29 03:01:32;;;;;;;41.70;22.92;;;;;;;;;;4958365;28;20027;-93
2024/02/29 03:03:58;;;;;;;41.45;24.55;;;;;;;;;;4958398;28;20173;-93
2024/02/29 03:06:24;;;;;;;41.58;26.42;;;;;;;;;;4958295;28;20046;-93
2024/02/29 03:08:50;;;;;;;40.22;22.77;;;;;;;;;;4958420;28;20026;-93
2024/02/29 03:11:16;;;;;;;45.47;25.80;;;;;;;;;;4954575;29;20070;-92
2024/02/29 03:13:55;;;;;;;47.22;25.55;;;;;;;;;;4945707;28;20019;-93
2024/02/29 03:16:26;;;;;;;37.72;23.23;;;;;;;;;;4958113;28;20045;-93
2024/02/29 03:18:52;;;;;;;41.83;22.70;;;;;;;;;;4958196;28;20031;-93
2024/02/29 03:21:18;;;;;;;40.05;24.55;;;;;;;;;;4958485;28;20054;-92
2024/02/29 03:23:44;;;;;;;47.67;24.58;;;;;;;;;;4958704;28;20027;-93
2024/02/29 03:26:10;;;;;;;41.17;23.90;;;;;;;;;;4957978;28;20043;-93
2024/02/29 03:28:37;;;;;;;49.08;25.60;;;;;;;;;;4958022;28;20019;-93
2024/02/29 03:31:03;;;;;;;60.13;31.52;;;;;;;;;;4958089;28;20038;-92
2024/02/29 03:36:33;;;;;;;48.43;25.83;;;;;;;;;;4975547;28;20030;-94
2024/02/29 03:39:05;;;;;;;54.13;31.80;;;;;;;;;;4958351;28;20055;-93
2024/02/29 03:41:34;;;;;;;60.92;28.20;;;;;;;;;;4948281;29;20031;-93
2024/02/29 03:44:03;;;;;;;51.70;28.33;;;;;;;;;;4938772;29;20070;-92
2024/02/29 03:46:29;;;;;;;57.63;28.52;;;;;;;;;;4947232;28;20047;-92
2024/02/29 03:48:56;;;;;;;51.55;29.27;;;;;;;;;;4970216;28;20038;-93
2024/02/29 03:51:25;;;;;;;67.75;29.63;;;;;;;;;;4950264;29;20046;-94
2024/02/29 03:53:54;;;;;;;50.90;25.05;;;;;;;;;;4939203;29;20051;-92
2024/02/29 03:56:29;;;;;;;62.75;29.85;;;;;;;;;;4939104;29;20032;-93
2024/02/29 03:58:55;;;;;;;75.13;32.58;;;;;;;;;;4941577;29;20035;-93
2024/02/29 04:01:25;;;;;;;59.75;27.17;;;;;;;;;;4952512;29;20035;-93
2024/02/29 04:03:54;;;;;;;59.83;25.63;;;;;;;;;;4939159;29;20084;-92
2024/02/29 04:06:20;;;;;;;63.15;28.33;;;;;;;;;;4944236;29;20460;-92
2024/02/29 04:08:46;;;;;;;62.53;27.55;;;;;;;;;;4958263;28;20027;-93
2024/02/29 04:11:12;;;;;;;64.55;28.88;;;;;;;;;;4958190;28;20484;-93
2024/02/29 04:13:41;;;;;;;47.75;24.10;;;;;;;;;;4958288;28;20023;-93
2024/02/29 04:16:11;;;;;;;52.47;24.30;;;;;;;;;;4959059;28;20031;-92
2024/02/29 04:18:39;;;;;;;56.85;27.35;;;;;;;;;;4957745;28;20031;-92
2024/02/29 04:21:05;;;;;;;54.30;28.45;;;;;;;;;;4957159;28;20039;-93
2024/02/29 04:23:31;;;;;;;48.63;25.35;;;;;;;;;;4957876;28;20027;-93
2024/02/29 04:25:57;;;;;;;48.38;26.95;;;;;;;;;;4958143;28;20045;-94
2024/02/29 04:28:29;;;;;;;52.92;26.73;;;;;;;;;;4957771;28;20387;-93
2024/02/29 04:31:01;;;;;;;78.35;30.98;;;;;;;;;;4948189;28;20103;-93
2024/02/29 04:33:27;;;;;;;70.28;28.92;;;;;;;;;;4939477;29;20027;-92
2024/02/29 04:36:01;;;;;;;74.22;30.58;;;;;;;;;;4950969;29;20041;-92
2024/02/29 04:38:30;;;;;;;65.72;30.10;;;;;;;;;;4948803;29;20035;-93
2024/02/29 04:40:59;;;;;;;53.83;27.73;;;;;;;;;;4945531;28;20114;-92
2024/02/29 04:43:25;;;;;;;64.72;29.58;;;;;;;;;;4940840;29;20127;-93
2024/02/29 04:45:51;;;;;;;76.28;31.67;;;;;;;;;;4938128;29;20039;-93
2024/02/29 04:48:20;;;;;;;70.75;31.10;;;;;;;;;;4938240;29;20028;-93
2024/02/29 04:50:52;;;;;;;72.63;30.83;;;;;;;;;;4938165;29;20055;-93
2024/02/29 04:53:22;;;;;;;75.22;27.67;;;;;;;;;;4941220;29;20071;-94
2024/02/29 04:55:48;;;;;;;75.57;28.30;;;;;;;;;;4941524;29;20027;-93
2024/02/29 04:58:14;;;;;;;60.80;25.95;;;;;;;;;;4941218;29;20027;-94
2024/02/29 05:00:40;;;;;;;68.93;27.35;;;;;;;;;;4955203;28;20068;-92
2024/02/29 05:03:12;;;;;;;50.47;24.60;;;;;;;;;;4975111;28;20035;-93
2024/02/29 05:05:41;;;;;;;72.93;26.55;;;;;;;;;;4943479;29;20532;-93
2024/02/29 05:08:10;;;;;;;65.35;27.52;;;;;;;;;;4941563;29;20572;-93
2024/02/29 05:10:39;;;;;;;62.92;25.60;;;;;;;;;;4941078;29;20027;-94
2024/02/29 05:13:09;;;;;;;43.13;21.73;;;;;;;;;;4941032;29;20055;-94
2024/02/29 05:15:41;;;;;;;77.90;25.10;;;;;;;;;;4939425;29;20039;-93
2024/02/29 05:18:10;;;;;;;72.38;27.45;;;;;;;;;;4941039;29;20067;-94
2024/02/29 05:20:36;;;;;;;62.80;25.55;;;;;;;;;;4941053;29;20032;-94
2024/02/29 05:23:09;;;;;;;65.78;27.40;;;;;;;;;;4959514;28;20045;-93
2024/02/29 05:25:38;;;;;;;62.25;26.27;;;;;;;;;;4960007;28;20039;-95
2024/02/29 05:28:04;;;;;;;47.50;25.27;;;;;;;;;;4959876;28;20435;-92
2024/02/29 05:30:36;;;;;;;68.00;25.98;;;;;;;;;;4960004;28;20125;-93
2024/02/29 05:33:11;;;;;;;65.95;25.23;;;;;;;;;;4954446;28;20035;-93
2024/02/29 05:35:38;;;;;;;73.32;28.85;;;;;;;;;;4960363;28;20031;-93
2024/02/29 05:38:21;;;;;;;69.20;27.90;;;;;;;;;;4959833;28;20027;-91
2024/02/29 05:40:47;;;;;;;71.32;26.95;;;;;;;;;;4959813;28;20034;-91
2024/02/29 05:43:17;;;;;;;85.97;29.05;;;;;;;;;;4959943;28;20030;-91
2024/02/29 05:45:46;;;;;;;70.30;27.55;;;;;;;;;;4959663;28;20496;-92
2024/02/29 05:48:12;;;;;;;68.78;26.27;;;;;;;;;;4959345;28;20023;-92
2024/02/29 05:50:41;;;;;;;60.78;25.13;;;;;;;;;;4940878;29;20051;-92
2024/02/29 05:53:07;;;;;;;65.93;26.20;;;;;;;;;;4938825;29;20054;-93
2024/02/29 05:55:39;;;;;;;70.50;26.05;;;;;;;;;;4950312;28;20046;-93
2024/02/29 05:58:09;;;;;;;60.60;26.13;;;;;;;;;;4959476;28;20030;-94
2024/02/29 06:00:35;;;;;;;65.03;26.70;;;;;;;;;;4949139;29;20031;-93
2024/02/29 06:03:04;;;;;;;77.85;29.70;;;;;;;;;;4953926;28;20038;-95
2024/02/29 06:05:30;;;;;;;82.53;30.75;;;;;;;;;;4960473;28;20039;-95
2024/02/29 06:08:06;;;;;;;70.13;27.92;;;;;;;;;;4959197;28;20031;-91
2024/02/29 06:10:39;;;;;;;64.22;27.48;;;;;;;;;;4977259;28;20038;-94
2024/02/29 06:13:11;;;;;;;65.40;28.58;;;;;;;;;;4954927;28;20051;-93
2024/02/29 06:15:52;;;;;;;55.20;27.33;;;;;;;;;;4941567;29;20027;-92
2024/02/29 06:18:25;;;;;;;54.42;26.48;;;;;;;;;;4942318;29;20027;-96
2024/02/29 06:20:52;;;;;;;50.70;24.33;;;;;;;;;;4950908;29;20119;-96
2024/02/29 06:23:18;;;;;;;43.30;21.60;;;;;;;;;;4947866;29;20035;-93
2024/02/29 06:31:44;;;;;;;40.80;22.90;;;;;;;;;;4957771;29;20503;-96
2024/02/29 06:34:10;;;;;;;42.35;24.50;;;;;;;;;;4921593;29;20283;-93
2024/02/29 06:36:40;;;;;;;37.92;23.17;;;;;;;;;;4938134;29;20074;-94
2024/02/29 06:42:10;;;;;;;36.58;25.40;;;;;;;;;;4951329;29;20026;-94
2024/02/29 06:44:36;;;;;;;36.95;26.02;;;;;;;;;;4937481;29;20046;-94
2024/02/29 06:47:06;;;;;;;35.97;22.45;;;;;;;;;;4949090;29;20038;-94
2024/02/29 06:49:35;;;;;;;39.10;29.20;;;;;;;;;;4956301;28;20081;-94
2024/02/29 06:52:04;;;;;;;35.78;29.58;;;;;;;;;;4948869;29;20484;-95
2024/02/29 06:54:30;;;;;;;31.80;20.98;;;;;;;;;;4964266;28;20016;-92
2024/02/29 06:56:56;;;;;;;34.03;25.85;;;;;;;;;;4955028;29;20035;-94
2024/02/29 06:59:25;;;;;;;33.22;23.58;;;;;;;;;;4955506;28;20020;-94
2024/02/29 07:01:51;;;;;;;34.05;25.25;;;;;;;;;;4939481;29;20078;-94
2024/02/29 07:04:23;;;;;;;34.22;26.08;;;;;;;;;;4936032;29;20036;-94
2024/02/29 07:06:49;;;;;;;35.92;24.42;;;;;;;;;;4939171;29;20500;-94
2024/02/29 07:09:19;;;;;;;31.65;24.27;;;;;;;;;;4934901;29;20043;-92
2024/02/29 07:11:49;;;;;;;28.17;22.50;;;;;;;;;;4938275;29;20032;-95
2024/02/29 07:14:16;;;;;;;33.53;25.05;;;;;;;;;;4950004;29;20397;-94
2024/02/29 07:16:43;;;;;;;31.65;21.45;;;;;;;;;;4955276;28;20378;-93
2024/02/29 07:19:09;;;;;;;26.75;22.35;;;;;;;;;;4936605;29;20052;-94
2024/02/29 07:21:35;;;;;;;30.20;24.23;;;;;;;;;;4921965;29;20082;-96
2024/02/29 07:24:02;;;;;;;28.17;21.92;;;;;;;;;;4948667;29;20158;-96
2024/02/29 07:26:31;;;;;;;34.80;25.15;;;;;;;;;;4956606;28;20042;-95
2024/02/29 07:29:01;;;;;;;35.33;24.08;;;;;;;;;;4960323;28;20039;-95
2024/02/29 07:31:35;;;;;;;30.75;24.38;;;;;;;;;;4959264;28;20090;-96
2024/02/29 07:34:01;;;;;;;33.65;26.23;;;;;;;;;;4951872;28;20053;-94
2024/02/29 07:36:27;;;;;;;37.45;29.90;;;;;;;;;;4940984;29;20026;-95
2024/02/29 07:39:00;;;;;;;37.63;28.08;;;;;;;;;;4951292;28;20030;-96
2024/02/29 07:41:26;;;;;;;32.90;26.33;;;;;;;;;;4961540;28;20544;-96
2024/02/29 07:43:52;;;;;;;28.73;24.08;;;;;;;;;;4967576;28;20326;-96
2024/02/29 07:46:24;;;;;;;29.83;24.13;;;;;;;;;;4959040;28;20074;-96
2024/02/29 07:48:53;;;;;;;31.17;25.42;;;;;;;;;;4958333;28;20092;-95
2024/02/29 07:51:25;;;;;;;30.98;26.70;;;;;;;;;;4958082;28;20039;-95
2024/02/29 07:53:54;;;;;;;33.95;28.30;;;;;;;;;;4958538;28;20081;-95
2024/02/29 07:56:23;;;;;;;31.90;26.17;;;;;;;;;;4950557;28;20126;-93
2024/02/29 07:58:55;;;;;;;31.13;26.45;;;;;;;;;;4939258;29;20031;-93
2024/02/29 08:01:24;;;;;;;31.63;26.17;;;;;;;;;;4938919;29;20066;-92
2024/02/29 08:03:50;;;;;;;29.85;24.25;;;;;;;;;;4939927;29;20045;-93
2024/02/29 08:06:22;;;;;;;28.05;23.13;;;;;;;;;;4939245;29;20039;-95
2024/02/29 08:08:48;;;;;;;30.70;25.70;;;;;;;;;;4941541;28;20531;-93
2024/02/29 08:11:14;;;;;;;34.13;26.90;;;;;;;;;;4953728;28;20030;-93
2024/02/29 08:13:40;;;;;;;33.22;26.45;;;;;;;;;;4960154;28;20058;-96
2024/02/29 08:16:08;;;;;;;37.13;29.05;;;;;;;;;;4974382;28;20097;-93
2024/02/29 08:18:34;;;;;;;35.78;27.50;;;;;;;;;;4971552;28;20035;-94
2024/02/29 08:21:03;;;;;;;33.95;28.10;;;;;;;;;;4951089;28;20042;-91
2024/02/29 08:23:30;;;;;;;29.38;24.23;;;;;;;;;;4944404;29;20027;-96
2024/02/29 08:26:07;;;;;;;30.23;25.55;;;;;;;;;;4954464;28;20036;-96
2024/02/29 08:28:33;;;;;;;30.88;26.98;;;;;;;;;;5093405;23;20054;-95
2024/02/29 08:31:00;;;;;;;35.85;28.33;;;;;;;;;;4940240;29;20027;-96
2024/02/29 08:33:39;;;;;;;36.20;29.38;;;;;;;;;;4923799;29;20382;-95
2024/02/29 08:36:10;;;;;;;36.03;29.15;;;;;;;;;;4940000;29;20054;-92
2024/02/29 08:38:37;;;;;;;39.63;28.45;;;;;;;;;;4944639;29;20078;-96
2024/02/29 08:41:04;;;;;;;37.83;28.02;;;;;;;;;;4942464;29;20118;-94
2024/02/29 08:43:30;;;;;;;37.42;28.17;;;;;;;;;;4941949;29;20033;-92
2024/02/29 08:45:56;;;;;;;39.95;28.95;;;;;;;;;;4955202;28;20042;-90
2024/02/29 08:48:23;;;;;;;38.72;29.63;;;;;;;;;;4958910;28;20472;-92
2024/02/29 08:50:49;;;;;;;35.70;28.85;;;;;;;;;;4942002;29;20037;-91
2024/02/29 08:53:15;;;;;;;40.63;28.70;;;;;;;;;;4942181;29;20062;-91
2024/02/29 08:55:41;;;;;;;33.92;27.98;;;;;;;;;;4942561;29;20031;-91
2024/02/29 08:58:08;;;;;;;36.00;27.55;;;;;;;;;;4941718;29;20027;-91
2024/02/29 09:00:35;;;;;;;37.00;28.58;;;;;;;;;;4942147;29;20485;-90
2024/02/29 09:03:04;;;;;;;40.78;31.55;;;;;;;;;;4941691;29;20031;-92
2024/02/29 09:05:36;;;;;;;38.08;31.27;;;;;;;;;;4942096;29;20035;-96
2024/02/29 09:08:08;;;;;;;36.50;29.37;;;;;;;;;;4928047;29;20050;-96
2024/02/29 09:10:54;;;;;;;38.47;28.88;;;;;;;;;;4942012;29;20031;-95
2024/02/29 09:13:33;;;;;;;36.33;28.38;;;;;;;;;;4941062;29;20255;-96
2024/02/29 09:19:03;;;;;;;38.40;29.80;;;;;;;;;;4904870;28;20034;-90
2024/02/29 09:21:32;;;;;;;37.63;29.80;;;;;;;;;;4942480;29;20031;-95
2024/02/29 09:23:58;;;;;;;36.30;32.00;;;;;;;;;;4918243;29;20036;-93
2024/02/29 09:26:25;;;;;;;35.88;29.75;;;;;;;;;;4902282;29;20490;-94
2024/02/29 09:28:54;;;;;;;34.70;30.90;;;;;;;;;;4902322;29;20044;-93
2024/02/29 09:31:23;;;;;;;37.78;31.38;;;;;;;;;;4902428;29;20032;-91
2024/02/29 09:33:51;;;;;;;33.17;29.35;;;;;;;;;;4902288;29;20054;-91
2024/02/29 09:36:21;;;;;;;36.72;29.77;;;;;;;;;;4901874;29;20040;-91
2024/02/29 09:38:49;;;;;;;34.20;28.77;;;;;;;;;;4902067;29;20032;-95
2024/02/29 09:41:16;;;;;;;34.60;29.10;;;;;;;;;;4902000;29;20127;-94
2024/02/29 09:43:44;;;;;;;38.03;30.67;;;;;;;;;;4902130;29;20054;-94
2024/02/29 09:46:10;;;;;;;34.17;29.60;;;;;;;;;;4901723;29;20434;-94
2024/02/29 09:48:57;;;;;;;37.47;31.65;;;;;;;;;;4903952;29;20020;-96
2024/02/29 09:51:28;;;;;;;37.95;32.70;;;;;;;;;;4903742;29;20028;-96
2024/02/29 09:53:54;;;;;;;36.55;30.88;;;;;;;;;;4909411;29;20035;-96
2024/02/29 09:56:22;;;;;;;38.47;33.05;;;;;;;;;;4945986;29;20027;-96
2024/02/29 09:58:51;;;;;;;35.25;31.33;;;;;;;;;;4960476;28;20027;-96
2024/02/29 10:01:20;;;;;;;38.70;34.25;;;;;;;;;;4965142;28;20015;-94
2024/02/29 10:03:47;;;;;;;58.40;52.92;;;;;;;;;;4938945;29;20027;-94
2024/02/29 10:06:13;;;;;;;37.28;33.20;;;;;;;;;;4948026;29;20062;-93
2024/02/29 10:08:39;;;;;;;21.23;19.02;;;;;;;;;;4940189;29;20062;-93
2024/02/29 10:11:07;;;;;;;38.70;29.77;;;;;;;;;;4940056;29;20042;-94
2024/02/29 10:13:40;;;;;;;40.80;31.00;;;;;;;;;;4940479;29;20038;-93
2024/02/29 10:16:13;;;;;;;38.85;32.13;;;;;;;;;;4940107;29;20023;-93
2024/02/29 10:18:39;;;;;;;39.13;32.83;;;;;;;;;;4939968;29;20037;-94
2024/02/29 10:21:10;;;;;;;39.92;32.30;;;;;;;;;;4939921;29;20035;-93
2024/02/29 10:23:36;;;;;;;39.17;30.42;;;;;;;;;;4939863;29;20031;-94
2024/02/29 10:26:02;;;;;;;35.63;30.30;;;;;;;;;;4939586;29;20490;-91
2024/02/29 10:28:29;;;;;;;37.67;29.27;;;;;;;;;;4950930;29;20504;-94
2024/02/29 10:30:58;;;;;;;33.95;29.50;;;;;;;;;;4955042;28;20121;-92
2024/02/29 10:33:25;;;;;;;37.40;29.40;;;;;;;;;;4936696;29;20078;-93
2024/02/29 10:35:52;;;;;;;37.97;29.15;;;;;;;;;;4937059;29;20571;-93
2024/02/29 10:38:18;;;;;;;37.58;30.15;;;;;;;;;;4936265;29;20032;-93
2024/02/29 10:41:03;;;;;;;39.22;30.67;;;;;;;;;;4942520;29;20027;-94
2024/02/29 10:43:31;;;;;;;40.60;31.73;;;;;;;;;;4955770;29;20023;-94
2024/02/29 10:45:59;;;;;;;40.40;29.63;;;;;;;;;;4955391;28;20039;-94
2024/02/29 10:48:28;;;;;;;37.28;30.20;;;;;;;;;;4955364;28;20046;-93
2024/02/29 10:51:10;;;;;;;38.63;30.38;;;;;;;;;;4955555;28;20031;-93
2024/02/29 10:53:44;;;;;;;42.83;31.25;;;;;;;;;;4956278;29;20491;-93
2024/02/29 10:56:30;;;;;;;38.97;30.98;;;;;;;;;;4956529;29;20035;-94
2024/02/29 10:59:02;;;;;;;44.45;31.58;;;;;;;;;;4946493;28;20097;-92
2024/02/29 11:01:29;;;;;;;39.90;31.10;;;;;;;;;;4955188;29;20039;-94
2024/02/29 11:03:55;;;;;;;39.10;30.33;;;;;;;;;;4955455;28;20035;-92
2024/02/29 11:06:22;;;;;;;44.30;32.67;;;;;;;;;;4947512;28;20047;-93
2024/02/29 11:08:50;;;;;;;43.97;31.20;;;;;;;;;;4936162;29;20028;-93
2024/02/29 11:11:20;;;;;;;45.10;33.45;;;;;;;;;;4936300;29;20028;-93
2024/02/29 11:13:46;;;;;;;44.10;33.50;;;;;;;;;;4936212;29;20028;-94
2024/02/29 11:16:15;;;;;;;45.83;32.60;;;;;;;;;;4936464;29;20056;-94
2024/02/29 11:18:42;;;;;;;41.13;30.73;;;;;;;;;;4936739;29;20055;-93
2024/02/29 11:21:09;;;;;;;37.67;31.33;;;;;;;;;;4955691;29;20035;-94
2024/02/29 11:23:36;;;;;;;41.25;33.08;;;;;;;;;;4963709;28;20083;-91
2024/02/29 11:26:03;;;;;;;43.63;32.40;;;;;;;;;;4955111;28;20043;-92
2024/02/29 11:28:33;;;;;;;40.72;32.03;;;;;;;;;;4939529;29;20051;-91
2024/02/29 11:31:14;;;;;;;43.97;34.42;;;;;;;;;;4938987;29;20038;-93
2024/02/29 11:33:41;;;;;;;40.53;31.77;;;;;;;;;;4945993;28;20079;-89
2024/02/29 11:36:08;;;;;;;41.85;33.15;;;;;;;;;;4956196;28;20042;-91
2024/02/29 11:38:34;;;;;;;37.40;31.52;;;;;;;;;;4939637;29;20038;-93
2024/02/29 11:41:01;;;;;;;43.95;33.28;;;;;;;;;;4938503;29;20090;-91
2024/02/29 11:43:27;;;;;;;43.22;31.35;;;;;;;;;;4938682;29;20031;-92
2024/02/29 11:45:53;;;;;;;40.42;33.00;;;;;;;;;;4938212;29;20097;-90
2024/02/29 11:48:19;;;;;;;38.03;30.92;;;;;;;;;;4938078;29;20058;-92
2024/02/29 11:50:46;;;;;;;35.00;28.92;;;;;;;;;;4939258;29;20411;-90
2024/02/29 11:53:12;;;;;;;38.42;30.48;;;;;;;;;;4941799;29;20031;-93
2024/02/29 11:55:38;;;;;;;39.15;32.35;;;;;;;;;;4938815;29;20031;-92
2024/02/29 11:58:04;;;;;;;36.90;30.23;;;;;;;;;;4938622;29;20038;-92
2024/02/29 12:00:30;;;;;;;44.13;32.13;;;;;;;;;;4938510;29;20023;-93
2024/02/29 12:02:57;;;;;;;36.05;30.55;;;;;;;;;;4938408;29;20039;-93
2024/02/29 12:05:24;;;;;;;36.15;29.42;;;;;;;;;;4938433;29;20074;-93
2024/02/29 12:07:51;;;;;;;35.47;28.55;;;;;;;;;;4938548;29;20507;-94
2024/02/29 12:10:17;;;;;;;36.75;28.83;;;;;;;;;;4939908;29;20023;-94
2024/02/29 12:12:43;;;;;;;37.58;29.73;;;;;;;;;;4942218;29;20580;-94
2024/02/29 12:15:10;;;;;;;37.92;29.02;;;;;;;;;;4942083;29;20027;-94
2024/02/29 12:17:37;;;;;;;35.78;28.10;;;;;;;;;;4942116;29;20431;-94
2024/02/29 12:20:04;;;;;;;34.50;28.90;;;;;;;;;;4942179;29;20034;-93
2024/02/29 12:22:30;;;;;;;32.88;28.02;;;;;;;;;;4942094;29;20069;-93
2024/02/29 12:24:57;;;;;;;36.78;27.83;;;;;;;;;;4942633;29;20103;-94
2024/02/29 12:27:23;;;;;;;34.95;28.42;;;;;;;;;;4941739;29;20138;-93
2024/02/29 12:29:50;;;;;;;32.90;27.73;;;;;;;;;;4941998;29;20040;-91
2024/02/29 12:32:16;;;;;;;35.70;28.48;;;;;;;;;;4941948;29;20114;-91
2024/02/29 12:34:44;;;;;;;31.60;26.55;;;;;;;;;;4941859;29;20023;-94
2024/02/29 12:37:11;;;;;;;37.13;29.15;;;;;;;;;;4942157;29;20114;-95
2024/02/29 12:39:37;;;;;;;33.00;27.52;;;;;;;;;;4941910;29;20115;-93
2024/02/29 12:42:03;;;;;;;42.08;31.00;;;;;;;;;;4941812;29;20082;-95
2024/02/29 12:44:30;;;;;;;32.17;27.05;;;;;;;;;;4941926;29;20024;-94
2024/02/29 12:46:57;;;;;;;35.95;31.40;;;;;;;;;;4942032;29;20035;-93
2024/02/29 12:49:23;;;;;;;33.33;27.52;;;;;;;;;;4942175;29;20070;-93
2024/02/29 12:51:49;;;;;;;36.03;26.92;;;;;;;;;;4943165;29;20043;-93
2024/02/29 12:54:15;;;;;;;30.33;24.50;;;;;;;;;;4941557;29;20038;-93
2024/02/29 12:56:42;;;;;;;36.63;25.42;;;;;;;;;;4941618;29;20023;-94
2024/02/29 12:59:10;;;;;;;32.85;24.85;;;;;;;;;;4941497;29;20031;-94
2024/02/29 13:01:37;;;;;;;32.63;25.45;;;;;;;;;;4941379;29;20110;-94
2024/02/29 13:04:04;;;;;;;35.40;25.35;;;;;;;;;;4941294;29;20031;-94
2024/02/29 13:06:31;;;;;;;31.42;25.23;;;;;;;;;;4941474;29;20497;-94
2024/02/29 13:08:57;;;;;;;33.50;25.13;;;;;;;;;;4952425;28;20040;-92
2024/02/29 13:11:24;;;;;;;32.85;25.75;;;;;;;;;;4964023;28;20020;-94
2024/02/29 13:13:50;;;;;;;34.05;24.95;;;;;;;;;;4947783;29;20038;-95
2024/02/29 13:16:17;;;;;;;29.48;23.65;;;;;;;;;;4962429;28;20042;-95
2024/02/29 13:18:43;;;;;;;36.60;23.95;;;;;;;;;;4942366;29;20034;-95
2024/02/29 13:21:09;;;;;;;30.67;23.63;;;;;;;;;;4943450;29;20027;-94
2024/02/29 13:23:35;;;;;;;32.55;23.45;;;;;;;;;;4941288;29;20401;-93
2024/02/29 13:26:02;;;;;;;33.90;24.85;;;;;;;;;;4945676;29;20090;-96
2024/02/29 13:28:30;;;;;;;34.05;25.05;;;;;;;;;;4954318;29;20055;-95
2024/02/29 13:30:56;;;;;;;30.67;24.67;;;;;;;;;;4959156;28;20483;-94
2024/02/29 13:33:22;;;;;;;38.88;23.90;;;;;;;;;;4957105;28;20023;-92
2024/02/29 13:35:49;;;;;;;34.35;25.23;;;;;;;;;;4956800;28;20643;-94
2024/02/29 13:38:15;;;;;;;40.75;25.48;;;;;;;;;;4957771;28;20028;-94
2024/02/29 13:40:41;;;;;;;40.80;23.98;;;;;;;;;;4959626;28;20031;-95
2024/02/29 13:43:07;;;;;;;30.23;23.98;;;;;;;;;;4959339;28;20023;-94
2024/02/29 13:45:37;;;;;;;31.52;24.63;;;;;;;;;;4956675;29;20031;-95
2024/02/29 13:48:03;;;;;;;29.92;23.13;;;;;;;;;;4957406;28;20038;-93
2024/02/29 13:50:29;;;;;;;27.73;22.33;;;;;;;;;;4957503;28;20031;-93
2024/02/29 13:52:55;;;;;;;30.55;21.10;;;;;;;;;;4942576;28;20490;-94
2024/02/29 13:55:21;;;;;;;31.02;21.23;;;;;;;;;;4937679;29;20062;-94
2024/02/29 13:57:48;;;;;;;30.73;20.25;;;;;;;;;;4937301;29;20055;-92
2024/02/29 14:00:14;;;;;;;29.23;22.13;;;;;;;;;;4937141;29;20032;-92
2024/02/29 14:02:40;;;;;;;28.45;22.15;;;;;;;;;;4956216;28;20031;-93
2024/02/29 14:05:06;;;;;;;29.00;21.90;;;;;;;;;;4956386;28;20075;-93
2024/02/29 14:07:32;;;;;;;28.13;20.30;;;;;;;;;;4956577;28;20170;-92
2024/02/29 14:09:59;;;;;;;28.95;20.73;;;;;;;;;;4957005;28;20027;-93
2024/02/29 14:12:27;;;;;;;34.55;21.38;;;;;;;;;;4956155;28;20035;-94
2024/02/29 14:14:53;;;;;;;30.83;19.90;;;;;;;;;;4956071;28;20033;-93
2024/02/29 14:17:20;;;;;;;31.27;20.77;;;;;;;;;;4956177;28;20055;-93
2024/02/29 14:19:46;;;;;;;30.70;23.65;;;;;;;;;;4938470;28;20035;-94
2024/02/29 14:22:12;;;;;;;42.60;29.08;;;;;;;;;;4937071;29;20071;-93
2024/02/29 14:24:38;;;;;;;27.52;20.33;;;;;;;;;;4939037;29;20028;-93
2024/02/29 14:27:07;;;;;;;43.72;27.92;;;;;;;;;;4926969;28;20110;-94
2024/02/29 14:29:33;;;;;;;28.83;24.52;;;;;;;;;;4953913;29;20011;-93
2024/02/29 14:31:59;;;;;;;28.63;20.67;;;;;;;;;;4959274;28;20039;-94
2024/02/29 14:37:02;;;;;;;27.98;21.73;;;;;;;;;;5176896;23;20106;-91
2024/02/29 14:39:48;;;;;;;24.38;16.23;;;;;;;;;;4942598;29;20027;-93
2024/02/29 14:42:15;;;;;;;31.13;22.38;;;;;;;;;;5046144;23;20023;-91
2024/02/29 14:47:58;;;;;;;39.55;25.40;;;;;;;;;;5044646;23;19922;-95